sensor_id;sensor_type;location;lat;lon;timestamp;temperature;humidity
24902;DHT22;31328;51.402;0.016;2022-12-08T00:01:13;1.80;99.90
24902;DHT22;31328;51.402;0.016;2022-12-08T00:03:40;1.80;99.90
24902;DHT22;31328;51.402;0.016;2022-12-08T00:06:12;1.80;99.90
24902;DHT22;31328;51.402;0.016;2022-12-08T00:08:58;1.90;99.90
24902;DHT22;31328;51.402;0.016;2022-12-08T00:11:43;1.90;99.90
24902;DHT22;31328;51.402;0.016;2022-12-08T00:14:09;1.80;99.90
24902;DHT22;31328;51.402;0.016;2022-12-08T00:16:36;1.80;99.90
24902;DHT22;31328;51.402;0.016;2022-12-08T00:19:02;1.80;99.90
24902;DHT22;31328;51.402;0.016;2022-12-08T00:21:28;1.80;99.90
24902;DHT22;31328;51.402;0.016;2022-12-08T00:23:55;1.80;99.90
24902;DHT22;31328;51.402;0.016;2022-12-08T00:26:21;1.80;99.90
24902;DHT22;31328;51.402;0.016;2022-12-08T00:28:48;1.70;99.90
24902;DHT22;31328;51.402;0.016;2022-12-08T00:31:14;1.70;99.90
24902;DHT22;31328;51.402;0.016;2022-12-08T00:33:40;1.70;99.90
24902;DHT22;31328;51.402;0.016;2022-12-08T00:36:08;1.70;99.90
24902;DHT22;31328;51.402;0.016;2022-12-08T00:38:35;1.70;99.90
24902;DHT22;31328;51.402;0.016;2022-12-08T00:41:03;1.70;99.90
24902;DHT22;31328;51.402;0.016;2022-12-08T00:43:29;1.70;99.90
24902;DHT22;31328;51.402;0.016;2022-12-08T00:45:55;1.70;99.90
24902;DHT22;31328;51.402;0.016;2022-12-08T00:48:22;1.60;99.90
24902;DHT22;31328;51.402;0.016;2022-12-08T00:50:48;1.70;99.90
24902;DHT22;31328;51.402;0.016;2022-12-08T00:53:14;1.60;99.90
24902;DHT22;31328;51.402;0.016;2022-12-08T00:55:42;1.60;99.90
24902;DHT22;31328;51.402;0.016;2022-12-08T00:58:08;1.60;99.90
24902;DHT22;31328;51.402;0.016;2022-12-08T01:00:34;1.60;99.90
24902;DHT22;31328;51.402;0.016;2022-12-08T01:03:01;1.60;99.90
24902;DHT22;31328;51.402;0.016;2022-12-08T01:05:27;1.60;99.90
24902;DHT22;31328;51.402;0.016;2022-12-08T01:07:53;1.60;99.90
24902;DHT22;31328;51.402;0.016;2022-12-08T01:10:19;1.60;99.90
24902;DHT22;31328;51.402;0.016;2022-12-08T01:12:46;1.60;99.90
24902;DHT22;31328;51.402;0.016;2022-12-08T01:15:12;1.60;99.90
24902;DHT22;31328;51.402;0.016;2022-12-08T01:17:38;1.60;99.90
24902;DHT22;31328;51.402;0.016;2022-12-08T01:20:05;1.60;99.90
24902;DHT22;31328;51.402;0.016;2022-12-08T01:22:33;1.60;99.90
24902;DHT22;31328;51.402;0.016;2022-12-08T01:25:01;1.60;99.90
24902;DHT22;31328;51.402;0.016;2022-12-08T01:27:27;1.60;99.90
24902;DHT22;31328;51.402;0.016;2022-12-08T01:29:54;1.60;99.90
24902;DHT22;31328;51.402;0.016;2022-12-08T01:32:20;1.60;99.90
24902;DHT22;31328;51.402;0.016;2022-12-08T01:34:46;1.60;99.90
24902;DHT22;31328;51.402;0.016;2022-12-08T01:37:12;1.50;99.90
24902;DHT22;31328;51.402;0.016;2022-12-08T01:39:39;1.50;99.90
24902;DHT22;31328;51.402;0.016;2022-12-08T01:42:19;1.50;99.90
24902;DHT22;31328;51.402;0.016;2022-12-08T01:44:56;1.50;99.90
24902;DHT22;31328;51.402;0.016;2022-12-08T01:47:28;1.50;99.90
24902;DHT22;31328;51.402;0.016;2022-12-08T01:49:56;1.50;99.90
24902;DHT22;31328;51.402;0.016;2022-12-08T01:52:31;1.50;99.90
24902;DHT22;31328;51.402;0.016;2022-12-08T01:55:25;1.50;99.90
24902;DHT22;31328;51.402;0.016;2022-12-08T01:57:52;1.50;99.90
24902;DHT22;31328;51.402;0.016;2022-12-08T02:00:21;1.50;99.90
24902;DHT22;31328;51.402;0.016;2022-12-08T02:02:56;1.40;99.90
24902;DHT22;31328;51.402;0.016;2022-12-08T02:05:28;1.40;99.90
24902;DHT22;31328;51.402;0.016;2022-12-08T02:07:57;1.40;99.90
24902;DHT22;31328;51.402;0.016;2022-12-08T02:10:27;1.40;99.90
24902;DHT22;31328;51.402;0.016;2022-12-08T02:12:55;1.40;99.90
24902;DHT22;31328;51.402;0.016;2022-12-08T02:15:37;1.40;99.90
24902;DHT22;31328;51.402;0.016;2022-12-08T02:20:52;1.30;99.90
24902;DHT22;31328;51.402;0.016;2022-12-08T02:32:17;1.20;99.90
24902;DHT22;31328;51.402;0.016;2022-12-08T02:35:00;1.20;99.90
24902;DHT22;31328;51.402;0.016;2022-12-08T02:37:35;1.20;99.90
24902;DHT22;31328;51.402;0.016;2022-12-08T02:40:18;1.10;99.90
24902;DHT22;31328;51.402;0.016;2022-12-08T02:46:04;1.10;99.90
24902;DHT22;31328;51.402;0.016;2022-12-08T02:48:33;1.10;99.90
24902;DHT22;31328;51.402;0.016;2022-12-08T02:51:00;1.10;99.90
24902;DHT22;31328;51.402;0.016;2022-12-08T02:53:29;1.10;99.90
24902;DHT22;31328;51.402;0.016;2022-12-08T03:01:43;1.00;99.90
24902;DHT22;31328;51.402;0.016;2022-12-08T03:10:04;1.00;99.90
24902;DHT22;31328;51.402;0.016;2022-12-08T03:15:17;1.00;99.90
24902;DHT22;31328;51.402;0.016;2022-12-08T03:17:51;1.10;99.90
24902;DHT22;31328;51.402;0.016;2022-12-08T03:20:22;1.10;99.90
24902;DHT22;31328;51.402;0.016;2022-12-08T03:22:50;1.10;99.90
24902;DHT22;31328;51.402;0.016;2022-12-08T03:25:20;1.10;99.90
24902;DHT22;31328;51.402;0.016;2022-12-08T03:27:47;1.10;99.90
24902;DHT22;31328;51.402;0.016;2022-12-08T03:30:15;1.00;99.90
24902;DHT22;31328;51.402;0.016;2022-12-08T03:32:47;1.00;99.90
24902;DHT22;31328;51.402;0.016;2022-12-08T03:35:21;1.10;99.90
24902;DHT22;31328;51.402;0.016;2022-12-08T03:37:49;1.10;99.90
24902;DHT22;31328;51.402;0.016;2022-12-08T03:40:19;1.00;99.90
24902;DHT22;31328;51.402;0.016;2022-12-08T03:42:45;1.00;99.90
24902;DHT22;31328;51.402;0.016;2022-12-08T03:45:12;1.00;99.90
24902;DHT22;31328;51.402;0.016;2022-12-08T03:47:38;1.00;99.90
24902;DHT22;31328;51.402;0.016;2022-12-08T03:50:05;1.00;99.90
24902;DHT22;31328;51.402;0.016;2022-12-08T03:52:31;1.00;99.90
24902;DHT22;31328;51.402;0.016;2022-12-08T03:54:58;1.00;99.90
24902;DHT22;31328;51.402;0.016;2022-12-08T03:57:24;0.90;99.90
24902;DHT22;31328;51.402;0.016;2022-12-08T03:59:50;0.90;99.90
24902;DHT22;31328;51.402;0.016;2022-12-08T04:02:16;0.90;99.90
24902;DHT22;31328;51.402;0.016;2022-12-08T04:04:43;0.90;99.90
24902;DHT22;31328;51.402;0.016;2022-12-08T04:07:09;0.90;99.90
24902;DHT22;31328;51.402;0.016;2022-12-08T04:09:35;0.90;99.90
24902;DHT22;31328;51.402;0.016;2022-12-08T04:12:01;0.90;99.90
24902;DHT22;31328;51.402;0.016;2022-12-08T04:14:28;0.90;99.90
24902;DHT22;31328;51.402;0.016;2022-12-08T04:16:54;0.80;99.90
24902;DHT22;31328;51.402;0.016;2022-12-08T04:19:21;0.80;99.90
24902;DHT22;31328;51.402;0.016;2022-12-08T04:21:47;0.80;99.90
24902;DHT22;31328;51.402;0.016;2022-12-08T04:24:13;0.80;99.90
24902;DHT22;31328;51.402;0.016;2022-12-08T04:26:39;0.80;99.90
24902;DHT22;31328;51.402;0.016;2022-12-08T04:29:06;0.80;99.90
24902;DHT22;31328;51.402;0.016;2022-12-08T04:31:32;0.80;99.90
24902;DHT22;31328;51.402;0.016;2022-12-08T04:33:58;0.80;99.90
24902;DHT22;31328;51.402;0.016;2022-12-08T04:36:25;0.80;99.90
24902;DHT22;31328;51.402;0.016;2022-12-08T04:38:51;0.80;99.90
24902;DHT22;31328;51.402;0.016;2022-12-08T04:41:17;0.80;99.90
24902;DHT22;31328;51.402;0.016;2022-12-08T04:43:43;0.80;99.90
24902;DHT22;31328;51.402;0.016;2022-12-08T04:46:10;0.70;99.90
24902;DHT22;31328;51.402;0.016;2022-12-08T04:48:37;0.80;99.90
24902;DHT22;31328;51.402;0.016;2022-12-08T04:51:05;0.70;99.90
24902;DHT22;31328;51.402;0.016;2022-12-08T04:53:31;0.80;99.90
24902;DHT22;31328;51.402;0.016;2022-12-08T04:55:58;0.80;99.90
24902;DHT22;31328;51.402;0.016;2022-12-08T04:58:24;0.70;99.90
24902;DHT22;31328;51.402;0.016;2022-12-08T05:00:50;0.80;99.90
24902;DHT22;31328;51.402;0.016;2022-12-08T05:03:17;0.70;99.90
24902;DHT22;31328;51.402;0.016;2022-12-08T05:05:43;0.70;99.90
24902;DHT22;31328;51.402;0.016;2022-12-08T05:08:10;0.80;99.90
24902;DHT22;31328;51.402;0.016;2022-12-08T05:10:36;0.80;99.90
24902;DHT22;31328;51.402;0.016;2022-12-08T05:13:03;0.70;99.90
24902;DHT22;31328;51.402;0.016;2022-12-08T05:15:29;0.80;99.90
24902;DHT22;31328;51.402;0.016;2022-12-08T05:17:55;0.80;99.90
24902;DHT22;31328;51.402;0.016;2022-12-08T05:20:22;0.70;99.90
24902;DHT22;31328;51.402;0.016;2022-12-08T05:22:48;0.70;99.90
24902;DHT22;31328;51.402;0.016;2022-12-08T05:25:15;0.70;99.90
24902;DHT22;31328;51.402;0.016;2022-12-08T05:27:41;0.80;99.90
24902;DHT22;31328;51.402;0.016;2022-12-08T05:30:08;0.80;99.90
24902;DHT22;31328;51.402;0.016;2022-12-08T05:32:34;0.70;99.90
24902;DHT22;31328;51.402;0.016;2022-12-08T05:35:00;0.70;99.90
24902;DHT22;31328;51.402;0.016;2022-12-08T05:37:27;0.70;99.90
24902;DHT22;31328;51.402;0.016;2022-12-08T05:39:53;0.70;99.90
24902;DHT22;31328;51.402;0.016;2022-12-08T05:42:19;0.70;99.90
24902;DHT22;31328;51.402;0.016;2022-12-08T05:44:45;0.70;99.90
24902;DHT22;31328;51.402;0.016;2022-12-08T05:47:12;0.60;99.90
24902;DHT22;31328;51.402;0.016;2022-12-08T05:49:38;0.60;99.90
24902;DHT22;31328;51.402;0.016;2022-12-08T05:52:05;0.60;99.90
24902;DHT22;31328;51.402;0.016;2022-12-08T05:54:31;0.60;99.90
24902;DHT22;31328;51.402;0.016;2022-12-08T05:56:58;0.60;99.90
24902;DHT22;31328;51.402;0.016;2022-12-08T05:59:25;0.60;99.90
24902;DHT22;31328;51.402;0.016;2022-12-08T06:01:51;0.60;99.90
24902;DHT22;31328;51.402;0.016;2022-12-08T06:04:17;0.60;99.90
24902;DHT22;31328;51.402;0.016;2022-12-08T06:06:43;0.60;99.90
24902;DHT22;31328;51.402;0.016;2022-12-08T06:09:10;0.70;99.90
24902;DHT22;31328;51.402;0.016;2022-12-08T06:11:37;0.60;99.90
24902;DHT22;31328;51.402;0.016;2022-12-08T06:14:04;0.60;99.90
24902;DHT22;31328;51.402;0.016;2022-12-08T06:16:30;0.60;99.90
24902;DHT22;31328;51.402;0.016;2022-12-08T06:18:56;0.60;99.90
24902;DHT22;31328;51.402;0.016;2022-12-08T06:21:23;0.50;99.90
24902;DHT22;31328;51.402;0.016;2022-12-08T06:23:51;0.50;99.90
24902;DHT22;31328;51.402;0.016;2022-12-08T06:26:19;0.50;99.90
24902;DHT22;31328;51.402;0.016;2022-12-08T06:28:45;0.50;99.90
24902;DHT22;31328;51.402;0.016;2022-12-08T06:31:13;0.50;99.90
24902;DHT22;31328;51.402;0.016;2022-12-08T06:33:40;0.40;99.90
24902;DHT22;31328;51.402;0.016;2022-12-08T06:36:06;0.40;99.90
24902;DHT22;31328;51.402;0.016;2022-12-08T06:38:33;0.40;99.90
24902;DHT22;31328;51.402;0.016;2022-12-08T06:41:00;0.40;99.90
24902;DHT22;31328;51.402;0.016;2022-12-08T06:43:27;0.40;99.90
24902;DHT22;31328;51.402;0.016;2022-12-08T06:45:53;0.40;99.90
24902;DHT22;31328;51.402;0.016;2022-12-08T06:48:19;0.40;99.90
24902;DHT22;31328;51.402;0.016;2022-12-08T06:50:46;0.40;99.90
24902;DHT22;31328;51.402;0.016;2022-12-08T06:53:13;0.40;99.90
24902;DHT22;31328;51.402;0.016;2022-12-08T06:55:51;0.40;99.90
24902;DHT22;31328;51.402;0.016;2022-12-08T06:58:18;0.30;99.90
24902;DHT22;31328;51.402;0.016;2022-12-08T07:00:45;0.40;99.90
24902;DHT22;31328;51.402;0.016;2022-12-08T07:03:12;0.40;99.90
24902;DHT22;31328;51.402;0.016;2022-12-08T07:05:38;0.40;99.90
24902;DHT22;31328;51.402;0.016;2022-12-08T07:08:06;0.40;99.90
24902;DHT22;31328;51.402;0.016;2022-12-08T07:10:33;0.40;99.90
24902;DHT22;31328;51.402;0.016;2022-12-08T07:12:59;0.50;99.90
24902;DHT22;31328;51.402;0.016;2022-12-08T07:15:26;0.50;99.90
24902;DHT22;31328;51.402;0.016;2022-12-08T07:17:52;0.50;99.90
24902;DHT22;31328;51.402;0.016;2022-12-08T07:20:19;0.50;99.90
24902;DHT22;31328;51.402;0.016;2022-12-08T07:22:49;0.50;99.90
24902;DHT22;31328;51.402;0.016;2022-12-08T07:25:16;0.50;99.90
24902;DHT22;31328;51.402;0.016;2022-12-08T07:27:43;0.40;99.90
24902;DHT22;31328;51.402;0.016;2022-12-08T07:30:10;0.40;99.90
24902;DHT22;31328;51.402;0.016;2022-12-08T07:32:39;0.40;99.90
24902;DHT22;31328;51.402;0.016;2022-12-08T07:35:06;0.40;99.90
24902;DHT22;31328;51.402;0.016;2022-12-08T07:37:33;0.40;99.90
24902;DHT22;31328;51.402;0.016;2022-12-08T07:40:00;0.40;99.90
24902;DHT22;31328;51.402;0.016;2022-12-08T07:42:26;0.40;99.90
24902;DHT22;31328;51.402;0.016;2022-12-08T07:44:53;0.40;99.90
24902;DHT22;31328;51.402;0.016;2022-12-08T07:47:19;0.40;99.90
24902;DHT22;31328;51.402;0.016;2022-12-08T07:49:45;0.50;99.90
24902;DHT22;31328;51.402;0.016;2022-12-08T07:52:11;0.40;99.90
24902;DHT22;31328;51.402;0.016;2022-12-08T07:54:38;0.50;99.90
24902;DHT22;31328;51.402;0.016;2022-12-08T07:57:04;0.50;99.90
24902;DHT22;31328;51.402;0.016;2022-12-08T07:59:32;0.50;99.90
24902;DHT22;31328;51.402;0.016;2022-12-08T08:01:58;0.50;99.90
24902;DHT22;31328;51.402;0.016;2022-12-08T08:04:24;0.50;99.90
24902;DHT22;31328;51.402;0.016;2022-12-08T08:06:50;0.50;99.90
24902;DHT22;31328;51.402;0.016;2022-12-08T08:09:17;0.50;99.90
24902;DHT22;31328;51.402;0.016;2022-12-08T08:11:43;0.50;99.90
24902;DHT22;31328;51.402;0.016;2022-12-08T08:14:09;0.50;99.90
24902;DHT22;31328;51.402;0.016;2022-12-08T08:16:36;0.40;99.90
24902;DHT22;31328;51.402;0.016;2022-12-08T08:19:02;0.40;99.90
24902;DHT22;31328;51.402;0.016;2022-12-08T08:21:28;0.40;99.90
24902;DHT22;31328;51.402;0.016;2022-12-08T08:23:54;0.40;99.90
24902;DHT22;31328;51.402;0.016;2022-12-08T08:26:21;0.30;99.90
24902;DHT22;31328;51.402;0.016;2022-12-08T08:28:47;0.30;99.90
24902;DHT22;31328;51.402;0.016;2022-12-08T08:31:15;0.30;99.90
24902;DHT22;31328;51.402;0.016;2022-12-08T08:33:41;0.30;99.90
24902;DHT22;31328;51.402;0.016;2022-12-08T08:36:08;0.30;99.90
24902;DHT22;31328;51.402;0.016;2022-12-08T08:38:35;0.30;99.90
24902;DHT22;31328;51.402;0.016;2022-12-08T08:41:10;0.30;99.90
24902;DHT22;31328;51.402;0.016;2022-12-08T08:43:37;0.40;99.90
24902;DHT22;31328;51.402;0.016;2022-12-08T08:46:04;0.40;99.90
24902;DHT22;31328;51.402;0.016;2022-12-08T08:48:31;0.40;99.90
24902;DHT22;31328;51.402;0.016;2022-12-08T08:50:58;0.40;99.90
24902;DHT22;31328;51.402;0.016;2022-12-08T08:53:26;0.50;99.90
24902;DHT22;31328;51.402;0.016;2022-12-08T08:55:52;0.50;99.90
24902;DHT22;31328;51.402;0.016;2022-12-08T08:58:19;0.50;99.90
24902;DHT22;31328;51.402;0.016;2022-12-08T09:00:45;0.50;99.90
24902;DHT22;31328;51.402;0.016;2022-12-08T09:03:11;0.50;99.90
24902;DHT22;31328;51.402;0.016;2022-12-08T09:05:38;0.50;99.90
24902;DHT22;31328;51.402;0.016;2022-12-08T09:08:06;0.60;99.90
24902;DHT22;31328;51.402;0.016;2022-12-08T09:10:33;0.60;99.90
24902;DHT22;31328;51.402;0.016;2022-12-08T09:12:59;0.60;99.90
24902;DHT22;31328;51.402;0.016;2022-12-08T09:15:25;0.60;99.90
24902;DHT22;31328;51.402;0.016;2022-12-08T09:17:52;0.60;99.90
24902;DHT22;31328;51.402;0.016;2022-12-08T09:20:18;0.60;99.90
24902;DHT22;31328;51.402;0.016;2022-12-08T09:22:45;0.70;99.90
24902;DHT22;31328;51.402;0.016;2022-12-08T09:25:11;0.70;99.90
24902;DHT22;31328;51.402;0.016;2022-12-08T09:27:37;0.80;99.90
24902;DHT22;31328;51.402;0.016;2022-12-08T09:30:04;0.80;99.90
24902;DHT22;31328;51.402;0.016;2022-12-08T09:32:31;0.80;99.90
24902;DHT22;31328;51.402;0.016;2022-12-08T09:34:57;0.90;99.90
24902;DHT22;31328;51.402;0.016;2022-12-08T09:37:25;0.90;99.90
24902;DHT22;31328;51.402;0.016;2022-12-08T09:39:51;0.90;99.90
24902;DHT22;31328;51.402;0.016;2022-12-08T09:42:32;0.90;99.90
24902;DHT22;31328;51.402;0.016;2022-12-08T09:45:17;0.90;99.90
24902;DHT22;31328;51.402;0.016;2022-12-08T09:53:28;1.00;99.90
24902;DHT22;31328;51.402;0.016;2022-12-08T09:56:04;1.00;99.90
24902;DHT22;31328;51.402;0.016;2022-12-08T10:01:33;1.10;99.90
24902;DHT22;31328;51.402;0.016;2022-12-08T10:04:00;1.20;99.90
24902;DHT22;31328;51.402;0.016;2022-12-08T10:06:34;1.20;99.90
24902;DHT22;31328;51.402;0.016;2022-12-08T10:09:37;1.20;99.90
24902;DHT22;31328;51.402;0.016;2022-12-08T10:17:44;1.40;99.90
24902;DHT22;31328;51.402;0.016;2022-12-08T10:20:19;1.40;99.90
24902;DHT22;31328;51.402;0.016;2022-12-08T10:22:49;1.40;99.90
24902;DHT22;31328;51.402;0.016;2022-12-08T10:25:20;1.50;99.90
24902;DHT22;31328;51.402;0.016;2022-12-08T10:27:50;1.50;99.90
24902;DHT22;31328;51.402;0.016;2022-12-08T10:30:18;1.60;99.90
24902;DHT22;31328;51.402;0.016;2022-12-08T10:32:48;1.50;99.90
24902;DHT22;31328;51.402;0.016;2022-12-08T10:35:17;1.60;99.90
24902;DHT22;31328;51.402;0.016;2022-12-08T10:37:56;1.60;99.90
24902;DHT22;31328;51.402;0.016;2022-12-08T10:40:27;1.70;99.90
24902;DHT22;31328;51.402;0.016;2022-12-08T10:42:57;1.80;99.90
24902;DHT22;31328;51.402;0.016;2022-12-08T10:45:37;1.80;99.90
24902;DHT22;31328;51.402;0.016;2022-12-08T10:48:23;1.80;99.90
24902;DHT22;31328;51.402;0.016;2022-12-08T10:50:55;1.80;99.90
24902;DHT22;31328;51.402;0.016;2022-12-08T10:53:27;1.90;99.90
24902;DHT22;31328;51.402;0.016;2022-12-08T10:58:31;2.00;99.90
24902;DHT22;31328;51.402;0.016;2022-12-08T11:01:04;2.00;99.90
24902;DHT22;31328;51.402;0.016;2022-12-08T11:03:53;2.10;99.90
24902;DHT22;31328;51.402;0.016;2022-12-08T11:06:40;2.20;99.90
24902;DHT22;31328;51.402;0.016;2022-12-08T11:16:54;2.40;99.90
24902;DHT22;31328;51.402;0.016;2022-12-08T11:19:25;2.40;99.90
24902;DHT22;31328;51.402;0.016;2022-12-08T11:21:54;2.40;99.90
24902;DHT22;31328;51.402;0.016;2022-12-08T11:24:24;2.50;99.90
24902;DHT22;31328;51.402;0.016;2022-12-08T11:26:59;2.50;99.90
24902;DHT22;31328;51.402;0.016;2022-12-08T11:29:27;2.60;99.90
24902;DHT22;31328;51.402;0.016;2022-12-08T11:32:13;2.70;99.90
24902;DHT22;31328;51.402;0.016;2022-12-08T11:34:44;2.70;99.90
24902;DHT22;31328;51.402;0.016;2022-12-08T11:37:26;2.70;99.90
24902;DHT22;31328;51.402;0.016;2022-12-08T11:39:57;2.80;99.90
24902;DHT22;31328;51.402;0.016;2022-12-08T11:42:30;2.80;99.90
24902;DHT22;31328;51.402;0.016;2022-12-08T11:44:59;2.80;99.90
24902;DHT22;31328;51.402;0.016;2022-12-08T11:48:00;2.90;99.90
24902;DHT22;31328;51.402;0.016;2022-12-08T11:50:40;3.00;99.90
24902;DHT22;31328;51.402;0.016;2022-12-08T11:53:16;3.00;99.90
24902;DHT22;31328;51.402;0.016;2022-12-08T11:55:56;3.10;99.90
24902;DHT22;31328;51.402;0.016;2022-12-08T11:58:33;3.10;99.90
24902;DHT22;31328;51.402;0.016;2022-12-08T12:01:01;3.10;99.90
24902;DHT22;31328;51.402;0.016;2022-12-08T12:03:38;3.20;99.90
24902;DHT22;31328;51.402;0.016;2022-12-08T12:12:05;3.30;99.90
24902;DHT22;31328;51.402;0.016;2022-12-08T12:20:11;3.50;99.90
24902;DHT22;31328;51.402;0.016;2022-12-08T12:22:40;3.50;99.90
24902;DHT22;31328;51.402;0.016;2022-12-08T12:25:20;3.60;99.90
24902;DHT22;31328;51.402;0.016;2022-12-08T12:27:47;3.60;99.90
24902;DHT22;31328;51.402;0.016;2022-12-08T12:30:23;3.60;99.90
24902;DHT22;31328;51.402;0.016;2022-12-08T12:32:56;3.60;99.90
24902;DHT22;31328;51.402;0.016;2022-12-08T12:38:03;3.70;99.90
24902;DHT22;31328;51.402;0.016;2022-12-08T12:40:50;3.70;99.90
24902;DHT22;31328;51.402;0.016;2022-12-08T12:43:28;3.80;99.90
24902;DHT22;31328;51.402;0.016;2022-12-08T12:48:50;3.80;99.90
24902;DHT22;31328;51.402;0.016;2022-12-08T12:51:44;3.80;99.90
24902;DHT22;31328;51.402;0.016;2022-12-08T12:56:54;3.90;99.90
24902;DHT22;31328;51.402;0.016;2022-12-08T13:01:56;4.00;99.90
24902;DHT22;31328;51.402;0.016;2022-12-08T13:04:33;4.00;99.90
24902;DHT22;31328;51.402;0.016;2022-12-08T13:07:00;4.00;99.90
24902;DHT22;31328;51.402;0.016;2022-12-08T13:09:36;4.10;99.90
24902;DHT22;31328;51.402;0.016;2022-12-08T13:12:16;4.10;99.90
24902;DHT22;31328;51.402;0.016;2022-12-08T13:14:47;4.10;99.90
24902;DHT22;31328;51.402;0.016;2022-12-08T13:17:23;4.10;99.90
24902;DHT22;31328;51.402;0.016;2022-12-08T13:19:54;4.20;99.90
24902;DHT22;31328;51.402;0.016;2022-12-08T13:25:44;4.20;99.90
24902;DHT22;31328;51.402;0.016;2022-12-08T13:30:43;4.30;99.90
24902;DHT22;31328;51.402;0.016;2022-12-08T13:33:14;4.30;99.90
24902;DHT22;31328;51.402;0.016;2022-12-08T13:35:48;4.30;99.90
24902;DHT22;31328;51.402;0.016;2022-12-08T13:38:18;4.30;99.90
24902;DHT22;31328;51.402;0.016;2022-12-08T13:40:45;4.30;99.90
24902;DHT22;31328;51.402;0.016;2022-12-08T13:43:22;4.40;99.90
24902;DHT22;31328;51.402;0.016;2022-12-08T13:45:51;4.40;99.90
24902;DHT22;31328;51.402;0.016;2022-12-08T13:48:24;4.40;99.90
24902;DHT22;31328;51.402;0.016;2022-12-08T13:51:05;4.40;99.90
24902;DHT22;31328;51.402;0.016;2022-12-08T13:53:38;4.40;99.90
24902;DHT22;31328;51.402;0.016;2022-12-08T13:56:06;4.40;99.90
24902;DHT22;31328;51.402;0.016;2022-12-08T13:58:36;4.40;99.90
24902;DHT22;31328;51.402;0.016;2022-12-08T14:01:21;4.40;99.90
24902;DHT22;31328;51.402;0.016;2022-12-08T14:03:54;4.40;99.90
24902;DHT22;31328;51.402;0.016;2022-12-08T14:06:53;4.40;99.90
24902;DHT22;31328;51.402;0.016;2022-12-08T14:09:26;4.40;99.90
24902;DHT22;31328;51.402;0.016;2022-12-08T14:12:17;4.40;99.90
24902;DHT22;31328;51.402;0.016;2022-12-08T14:14:46;4.40;99.90
24902;DHT22;31328;51.402;0.016;2022-12-08T14:17:22;4.40;99.90
24902;DHT22;31328;51.402;0.016;2022-12-08T14:22:39;4.40;99.90
24902;DHT22;31328;51.402;0.016;2022-12-08T14:25:12;4.50;99.90
24902;DHT22;31328;51.402;0.016;2022-12-08T14:27:39;4.50;99.90
24902;DHT22;31328;51.402;0.016;2022-12-08T14:30:07;4.40;99.90
24902;DHT22;31328;51.402;0.016;2022-12-08T14:32:37;4.40;99.90
24902;DHT22;31328;51.402;0.016;2022-12-08T14:37:42;4.40;99.90
24902;DHT22;31328;51.402;0.016;2022-12-08T14:40:20;4.40;99.90
24902;DHT22;31328;51.402;0.016;2022-12-08T14:45:19;4.40;99.90
24902;DHT22;31328;51.402;0.016;2022-12-08T14:47:46;4.40;99.90
24902;DHT22;31328;51.402;0.016;2022-12-08T14:50:37;4.40;99.90
24902;DHT22;31328;51.402;0.016;2022-12-08T14:53:11;4.40;99.90
24902;DHT22;31328;51.402;0.016;2022-12-08T14:55:38;4.40;99.90
24902;DHT22;31328;51.402;0.016;2022-12-08T14:58:04;4.30;99.90
24902;DHT22;31328;51.402;0.016;2022-12-08T15:00:32;4.30;99.90
24902;DHT22;31328;51.402;0.016;2022-12-08T15:03:04;4.30;99.90
24902;DHT22;31328;51.402;0.016;2022-12-08T15:05:31;4.20;99.90
24902;DHT22;31328;51.402;0.016;2022-12-08T15:08:02;4.20;99.90
24902;DHT22;31328;51.402;0.016;2022-12-08T15:10:31;4.20;99.90
24902;DHT22;31328;51.402;0.016;2022-12-08T15:15:53;4.10;99.90
24902;DHT22;31328;51.402;0.016;2022-12-08T15:18:36;4.00;99.90
24902;DHT22;31328;51.402;0.016;2022-12-08T15:21:04;4.00;99.90
24902;DHT22;31328;51.402;0.016;2022-12-08T15:23:42;3.90;99.90
24902;DHT22;31328;51.402;0.016;2022-12-08T15:26:19;3.80;99.90
24902;DHT22;31328;51.402;0.016;2022-12-08T15:28:46;3.80;99.90
24902;DHT22;31328;51.402;0.016;2022-12-08T15:31:13;3.70;99.90
24902;DHT22;31328;51.402;0.016;2022-12-08T15:33:40;3.70;99.90
24902;DHT22;31328;51.402;0.016;2022-12-08T15:36:08;3.60;99.90
24902;DHT22;31328;51.402;0.016;2022-12-08T15:38:34;3.50;99.90
24902;DHT22;31328;51.402;0.016;2022-12-08T15:41:01;3.40;99.90
24902;DHT22;31328;51.402;0.016;2022-12-08T15:43:29;3.40;99.90
24902;DHT22;31328;51.402;0.016;2022-12-08T15:45:56;3.30;99.90
24902;DHT22;31328;51.402;0.016;2022-12-08T15:48:25;3.20;99.90
24902;DHT22;31328;51.402;0.016;2022-12-08T15:50:53;3.20;99.90
24902;DHT22;31328;51.402;0.016;2022-12-08T15:53:19;3.00;99.90
24902;DHT22;31328;51.402;0.016;2022-12-08T15:55:46;3.00;99.90
24902;DHT22;31328;51.402;0.016;2022-12-08T15:58:20;2.90;99.90
24902;DHT22;31328;51.402;0.016;2022-12-08T16:00:48;2.80;99.90
24902;DHT22;31328;51.402;0.016;2022-12-08T16:03:28;2.70;99.90
24902;DHT22;31328;51.402;0.016;2022-12-08T16:05:57;2.70;99.90
24902;DHT22;31328;51.402;0.016;2022-12-08T16:08:29;2.60;99.90
24902;DHT22;31328;51.402;0.016;2022-12-08T16:10:56;2.60;99.90
24902;DHT22;31328;51.402;0.016;2022-12-08T16:13:42;2.50;99.90
24902;DHT22;31328;51.402;0.016;2022-12-08T16:16:19;2.40;99.90
24902;DHT22;31328;51.402;0.016;2022-12-08T16:18:49;2.40;99.90
24902;DHT22;31328;51.402;0.016;2022-12-08T16:21:16;2.30;99.90
24902;DHT22;31328;51.402;0.016;2022-12-08T16:23:43;2.30;99.90
24902;DHT22;31328;51.402;0.016;2022-12-08T16:26:14;2.30;99.90
24902;DHT22;31328;51.402;0.016;2022-12-08T16:28:41;2.20;99.90
24902;DHT22;31328;51.402;0.016;2022-12-08T16:31:11;2.20;99.90
24902;DHT22;31328;51.402;0.016;2022-12-08T16:33:38;2.10;99.90
24902;DHT22;31328;51.402;0.016;2022-12-08T16:36:05;2.00;99.90
24902;DHT22;31328;51.402;0.016;2022-12-08T16:38:31;2.00;99.90
24902;DHT22;31328;51.402;0.016;2022-12-08T16:40:58;1.90;99.90
24902;DHT22;31328;51.402;0.016;2022-12-08T16:43:42;1.90;99.90
24902;DHT22;31328;51.402;0.016;2022-12-08T16:46:17;1.80;99.90
24902;DHT22;31328;51.402;0.016;2022-12-08T16:48:44;1.80;99.90
24902;DHT22;31328;51.402;0.016;2022-12-08T16:51:17;1.70;99.90
24902;DHT22;31328;51.402;0.016;2022-12-08T16:53:44;1.70;99.90
24902;DHT22;31328;51.402;0.016;2022-12-08T16:56:18;1.70;99.90
24902;DHT22;31328;51.402;0.016;2022-12-08T16:58:46;1.60;99.90
24902;DHT22;31328;51.402;0.016;2022-12-08T17:01:15;1.50;99.90
24902;DHT22;31328;51.402;0.016;2022-12-08T17:03:43;1.50;99.90
24902;DHT22;31328;51.402;0.016;2022-12-08T17:06:17;1.50;99.90
24902;DHT22;31328;51.402;0.016;2022-12-08T17:08:44;1.40;99.90
24902;DHT22;31328;51.402;0.016;2022-12-08T17:11:20;1.40;99.90
24902;DHT22;31328;51.402;0.016;2022-12-08T17:13:47;1.40;99.90
24902;DHT22;31328;51.402;0.016;2022-12-08T17:16:16;1.30;99.90
24902;DHT22;31328;51.402;0.016;2022-12-08T17:18:42;1.30;99.90
24902;DHT22;31328;51.402;0.016;2022-12-08T17:21:14;1.30;99.90
24902;DHT22;31328;51.402;0.016;2022-12-08T17:23:41;1.20;99.90
24902;DHT22;31328;51.402;0.016;2022-12-08T17:26:08;1.20;99.90
24902;DHT22;31328;51.402;0.016;2022-12-08T17:28:34;1.20;99.90
24902;DHT22;31328;51.402;0.016;2022-12-08T17:31:00;1.10;99.90
24902;DHT22;31328;51.402;0.016;2022-12-08T17:33:28;1.10;99.90